GIA009 WIDD-WIMM
Flight info
| Callsign | GIA009 |
|---|---|
| Flight time | N/A |
| Altitude | 32000 |
| Route | SALAX N563 ELROK |
| Aircraft | B738/M-SDE2E3FGHIRWXY/LB1 |
Departure
| Time | N/A |
|---|---|
| Airport | Hang Nadim International Airport (WIDD) |
Arrival
| Time | 2026-05-05 12:21 |
|---|---|
| Airport | Kualanamu International Airport (WIMM) |
| Time | Latitude | Longitude | Altitude | Speed | Heading |
|---|---|---|---|---|---|
| 2026-05-05 12:01 | 2.80529 | 99.65327 | 27380 ft | 401 kts | 288° |
| 2026-05-05 12:01 | 2.81399 | 99.62677 | 26904 ft | 401 kts | 288° |
| 2026-05-05 12:01 | 2.81988 | 99.60884 | 26589 ft | 401 kts | 288° |
| 2026-05-05 12:01 | 2.83141 | 99.57375 | 25969 ft | 402 kts | 288° |
| 2026-05-05 12:02 | 2.83719 | 99.55614 | 25671 ft | 402 kts | 288° |
| 2026-05-05 12:02 | 2.84592 | 99.52957 | 25219 ft | 402 kts | 288° |
| 2026-05-05 12:02 | 2.85464 | 99.50302 | 24773 ft | 402 kts | 288° |
| 2026-05-05 12:02 | 2.86331 | 99.47664 | 24235 ft | 397 kts | 288° |
| 2026-05-05 12:03 | 2.87190 | 99.45049 | 23702 ft | 394 kts | 288° |
| 2026-05-05 12:03 | 2.88036 | 99.42472 | 23235 ft | 387 kts | 288° |
| 2026-05-05 12:03 | 2.88872 | 99.39926 | 22637 ft | 383 kts | 288° |
| 2026-05-05 12:03 | 2.89700 | 99.37402 | 22063 ft | 379 kts | 288° |
| 2026-05-05 12:04 | 2.90519 | 99.34909 | 21499 ft | 376 kts | 288° |
| 2026-05-05 12:04 | 2.91331 | 99.32436 | 20950 ft | 372 kts | 288° |
| 2026-05-05 12:04 | 2.92135 | 99.29987 | 20405 ft | 369 kts | 288° |
| 2026-05-05 12:04 | 2.92932 | 99.27558 | 19874 ft | 366 kts | 288° |
| 2026-05-05 12:05 | 2.93723 | 99.25147 | 19354 ft | 363 kts | 288° |
| 2026-05-05 12:05 | 2.94506 | 99.22760 | 18840 ft | 360 kts | 289° |
| 2026-05-05 12:05 | 2.95284 | 99.20390 | 18337 ft | 357 kts | 289° |
| 2026-05-05 12:05 | 2.96056 | 99.18039 | 17788 ft | 354 kts | 289° |
| 2026-05-05 12:06 | 2.96811 | 99.15737 | 17220 ft | 352 kts | 289° |
| 2026-05-05 12:06 | 2.97607 | 99.13442 | 16724 ft | 346 kts | 295° |
| 2026-05-05 12:06 | 2.98942 | 99.11480 | 16217 ft | 339 kts | 314° |
| 2026-05-05 12:06 | 3.00580 | 99.09807 | 15769 ft | 334 kts | 316° |
| 2026-05-05 12:07 | 3.02232 | 99.08193 | 15275 ft | 331 kts | 317° |
| 2026-05-05 12:07 | 3.03875 | 99.06598 | 14815 ft | 327 kts | 317° |
| 2026-05-05 12:07 | 3.05491 | 99.05021 | 14385 ft | 323 kts | 316° |
| 2026-05-05 12:07 | 3.07085 | 99.03456 | 13956 ft | 318 kts | 316° |
| 2026-05-05 12:08 | 3.08648 | 99.01913 | 13540 ft | 314 kts | 316° |
| 2026-05-05 12:08 | 3.10189 | 99.00386 | 13083 ft | 310 kts | 316° |
| 2026-05-05 12:08 | 3.11710 | 98.98877 | 12631 ft | 306 kts | 316° |
| 2026-05-05 12:08 | 3.13210 | 98.97386 | 12188 ft | 302 kts | 316° |
| 2026-05-05 12:09 | 3.14692 | 98.95911 | 11748 ft | 299 kts | 316° |
| 2026-05-05 12:09 | 3.16158 | 98.94452 | 11323 ft | 296 kts | 316° |
| 2026-05-05 12:09 | 3.17607 | 98.93010 | 10916 ft | 292 kts | 316° |
| 2026-05-05 12:09 | 3.19039 | 98.91584 | 10542 ft | 288 kts | 316° |
| 2026-05-05 12:10 | 3.20447 | 98.90182 | 10172 ft | 284 kts | 316° |
| 2026-05-05 12:10 | 3.21839 | 98.88796 | 9805 ft | 280 kts | 316° |
| 2026-05-05 12:10 | 3.23192 | 98.87448 | 9409 ft | 276 kts | 316° |
| 2026-05-05 12:10 | 3.24564 | 98.86082 | 8997 ft | 273 kts | 316° |
| 2026-05-05 12:11 | 3.25885 | 98.84766 | 8610 ft | 270 kts | 316° |
| 2026-05-05 12:11 | 3.27207 | 98.83449 | 8256 ft | 266 kts | 316° |
| 2026-05-05 12:11 | 3.28497 | 98.82165 | 7958 ft | 257 kts | 316° |
| 2026-05-05 12:11 | 3.29747 | 98.80920 | 7622 ft | 251 kts | 316° |
| 2026-05-05 12:12 | 3.30980 | 98.79692 | 7300 ft | 248 kts | 316° |
| 2026-05-05 12:12 | 3.32208 | 98.78506 | 6978 ft | 243 kts | 317° |
| 2026-05-05 12:12 | 3.33423 | 98.77350 | 6637 ft | 239 kts | 317° |
| 2026-05-05 12:12 | 3.34620 | 98.76212 | 6313 ft | 236 kts | 317° |
| 2026-05-05 12:13 | 3.35802 | 98.75086 | 5979 ft | 233 kts | 317° |
| 2026-05-05 12:13 | 3.36961 | 98.73982 | 5673 ft | 227 kts | 317° |
| 2026-05-05 12:13 | 3.38095 | 98.72900 | 5352 ft | 224 kts | 316° |
| 2026-05-05 12:13 | 3.39221 | 98.71825 | 5024 ft | 224 kts | 316° |
| 2026-05-05 12:14 | 3.40350 | 98.70748 | 4741 ft | 223 kts | 316° |
| 2026-05-05 12:14 | 3.41472 | 98.69678 | 4393 ft | 224 kts | 316° |
| 2026-05-05 12:14 | 3.42682 | 98.68686 | 3979 ft | 227 kts | 334° |
| 2026-05-05 12:14 | 3.44217 | 98.68422 | 3592 ft | 227 kts | 8° |
| 2026-05-05 12:15 | 3.45625 | 98.69084 | 3223 ft | 226 kts | 38° |
| 2026-05-05 12:15 | 3.46805 | 98.70122 | 2834 ft | 225 kts | 42° |
| 2026-05-05 12:15 | 3.47923 | 98.71199 | 2565 ft | 218 kts | 44° |
| 2026-05-05 12:15 | 3.48957 | 98.72230 | 2505 ft | 203 kts | 44° |
| 2026-05-05 12:16 | 3.49947 | 98.73221 | 2515 ft | 201 kts | 44° |
| 2026-05-05 12:16 | 3.50913 | 98.74189 | 2487 ft | 190 kts | 44° |
| 2026-05-05 12:16 | 3.51791 | 98.75068 | 2487 ft | 167 kts | 43° |
| 2026-05-05 12:16 | 3.52617 | 98.75894 | 2514 ft | 169 kts | 43° |
| 2026-05-05 12:17 | 3.53443 | 98.76719 | 2417 ft | 167 kts | 43° |
| 2026-05-05 12:17 | 3.54263 | 98.77540 | 2224 ft | 166 kts | 43° |
| 2026-05-05 12:17 | 3.55068 | 98.78344 | 2014 ft | 162 kts | 43° |
| 2026-05-05 12:17 | 3.55847 | 98.79124 | 1821 ft | 159 kts | 44° |
| 2026-05-05 12:18 | 3.56631 | 98.79907 | 1616 ft | 159 kts | 43° |
| 2026-05-05 12:18 | 3.57412 | 98.80688 | 1395 ft | 159 kts | 43° |
| 2026-05-05 12:18 | 3.58190 | 98.81467 | 1206 ft | 158 kts | 43° |
| 2026-05-05 12:18 | 3.58966 | 98.82243 | 1009 ft | 157 kts | 43° |
| 2026-05-05 12:19 | 3.59738 | 98.83015 | 831 ft | 156 kts | 44° |
| 2026-05-05 12:19 | 3.60507 | 98.83784 | 633 ft | 156 kts | 44° |
| 2026-05-05 12:19 | 3.61270 | 98.84544 | 420 ft | 154 kts | 44° |
| 2026-05-05 12:19 | 3.62020 | 98.85300 | 236 ft | 151 kts | 44° |
| 2026-05-05 12:20 | 3.62744 | 98.86023 | 49 ft | 140 kts | 43° |
| 2026-05-05 12:20 | 3.63383 | 98.86652 | 34 ft | 116 kts | 47° |
| 2026-05-05 12:20 | 3.63870 | 98.87142 | 36 ft | 82 kts | 44° |
| 2026-05-05 12:20 | 3.64202 | 98.87472 | 34 ft | 58 kts | 45° |
| 2026-05-05 12:21 | 3.64404 | 98.87686 | 35 ft | 26 kts | 57° |
| 2026-05-05 12:21 | 3.64456 | 98.87787 | 33 ft | 8 kts | 68° |
| 2026-05-05 12:21 | 3.64473 | 98.87840 | 35 ft | 8 kts | 75° |
| 2026-05-05 12:21 | 3.64483 | 98.87880 | 36 ft | 2 kts | 75° |
| 2026-05-05 12:22 | 3.64484 | 98.87897 | 36 ft | 2 kts | 86° |
| 2026-05-05 12:22 | 3.64479 | 98.87922 | 37 ft | 5 kts | 114° |
| 2026-05-05 12:22 | 3.64455 | 98.87952 | 36 ft | 8 kts | 133° |
| 2026-05-05 12:22 | 3.64409 | 98.87998 | 39 ft | 10 kts | 135° |
| 2026-05-05 12:23 | 3.64358 | 98.88049 | 39 ft | 11 kts | 134° |
| 2026-05-05 12:23 | 3.64302 | 98.88105 | 39 ft | 12 kts | 136° |
| 2026-05-05 12:23 | 3.64242 | 98.88164 | 39 ft | 13 kts | 136° |
| 2026-05-05 12:23 | 3.64170 | 98.88196 | 39 ft | 12 kts | 198° |
| 2026-05-05 12:24 | 3.64104 | 98.88141 | 39 ft | 13 kts | 226° |
| 2026-05-05 12:24 | 3.64042 | 98.88079 | 39 ft | 12 kts | 224° |
| 2026-05-05 12:24 | 3.63981 | 98.88019 | 39 ft | 13 kts | 225° |
| 2026-05-05 12:24 | 3.63926 | 98.87971 | 39 ft | 0 kts | 210° |
| 2026-05-05 12:25 | 3.63919 | 98.87968 | 39 ft | 3 kts | 205° |
| 2026-05-05 12:25 | 3.63898 | 98.87964 | 39 ft | 3 kts | 178° |
| 2026-05-05 12:25 | 3.63871 | 98.87976 | 37 ft | 6 kts | 145° |
| 2026-05-05 12:25 | 3.63837 | 98.88007 | 39 ft | 7 kts | 144° |
| 2026-05-05 12:26 | 3.63831 | 98.88008 | 37 ft | 1 kts | 177° |
| 2026-05-05 12:26 | 3.63815 | 98.88001 | 39 ft | 4 kts | 207° |
| 2026-05-05 12:26 | 3.63796 | 98.87987 | 38 ft | 3 kts | 221° |
| 2026-05-05 12:26 | 3.63781 | 98.87972 | 39 ft | 1 kts | 224° |
| 2026-05-05 12:27 | 3.63774 | 98.87965 | 39 ft | 2 kts | 225° |
| 2026-05-05 12:27 | 3.63765 | 98.87956 | 39 ft | 2 kts | 225° |
| 2026-05-05 12:27 | 3.63758 | 98.87950 | 38 ft | 0 kts | 225° |